Time;durP1;ratioP1;P1;durP2;ratioP2;P2;SDS_P1;SDS_P2;PMS_P1;PMS_P2;Temp;Humidity;BMP_temperature;BMP_pressure;BME280_temperature;BME280_humidity;BME280_pressure;Samples;Min_cycle;Max_cycle;Signal;HPM_P1;HPM_P2
2022/07/17 00:01:32;;;;;;;8.20;5.40;;;;;;;19.51;100.00;97768.75;5099419;27;20060;-81
2022/07/17 00:03:57;;;;;;;6.32;5.22;;;;;;;19.43;100.00;97777.63;5099434;27;20414;-81
2022/07/17 00:06:23;;;;;;;14.50;5.57;;;;;;;19.50;100.00;97774.34;5116629;27;20023;-81
2022/07/17 00:08:49;;;;;;;6.93;5.32;;;;;;;19.38;100.00;97781.75;5116287;27;20083;-81
2022/07/17 00:11:14;;;;;;;8.13;5.53;;;;;;;19.28;100.00;97792.59;5096467;28;20034;-82
2022/07/17 00:13:40;;;;;;;8.55;5.40;;;;;;;19.41;100.00;97782.31;5096015;28;20032;-80
2022/07/17 00:16:06;;;;;;;11.77;4.95;;;;;;;19.37;100.00;97780.03;5112994;28;20027;-80
2022/07/17 00:18:32;;;;;;;11.93;6.00;;;;;;;19.18;100.00;97785.44;5108179;28;20020;-80
2022/07/17 00:20:57;;;;;;;14.57;6.65;;;;;;;19.02;100.00;97790.56;5087159;27;20034;-80
2022/07/17 00:23:23;;;;;;;13.70;6.53;;;;;;;18.85;100.00;97790.28;5104067;28;20027;-81
2022/07/17 00:25:48;;;;;;;11.63;6.68;;;;;;;18.85;100.00;97784.88;5078802;28;20028;-80
2022/07/17 00:28:14;;;;;;;13.10;7.25;;;;;;;18.90;100.00;97796.13;5099296;27;20031;-80
2022/07/17 00:30:39;;;;;;;17.33;7.70;;;;;;;18.78;100.00;97789.13;5098635;27;20027;-80
2022/07/17 00:33:05;;;;;;;11.05;7.13;;;;;;;18.82;100.00;97790.56;5129513;27;20019;-81
2022/07/17 00:35:31;;;;;;;13.55;7.22;;;;;;;18.71;100.00;97782.53;5126292;27;20045;-81
2022/07/17 00:37:56;;;;;;;14.30;7.30;;;;;;;18.84;100.00;97793.97;5097074;27;20028;-81
2022/07/17 00:40:23;;;;;;;12.07;7.60;;;;;;;18.83;100.00;97799.53;5098671;27;20121;-81
2022/07/17 00:42:50;;;;;;;11.48;7.57;;;;;;;18.83;100.00;97808.53;5081948;28;20105;-80
2022/07/17 00:45:16;;;;;;;17.13;7.95;;;;;;;18.75;100.00;97813.78;5081815;28;20471;-81
2022/07/17 00:47:59;;;;;;;11.02;7.30;;;;;;;18.77;100.00;97805.50;5108101;27;20035;-80
2022/07/17 00:50:36;;;;;;;11.50;6.50;;;;;;;18.68;100.00;97814.47;5087446;27;20047;-81
2022/07/17 00:53:04;;;;;;;9.30;6.93;;;;;;;18.66;100.00;97806.50;5081778;28;20050;-81
2022/07/17 00:55:30;;;;;;;12.70;6.85;;;;;;;18.63;100.00;97803.19;5080380;28;20023;-80
2022/07/17 00:57:56;;;;;;;13.52;7.70;;;;;;;18.54;100.00;97810.31;5095834;28;20028;-80
2022/07/17 01:00:22;;;;;;;10.98;6.82;;;;;;;18.42;100.00;97814.09;5080616;28;20036;-81
2022/07/17 01:02:49;;;;;;;15.75;6.38;;;;;;;18.26;100.00;97814.59;5093245;28;20498;-80
2022/07/17 01:05:16;;;;;;;11.35;6.43;;;;;;;18.26;100.00;97821.84;5082999;28;20020;-81
2022/07/17 01:07:42;;;;;;;11.00;6.50;;;;;;;18.21;100.00;97826.84;5106303;28;20057;-81
2022/07/17 01:10:08;;;;;;;8.98;6.47;;;;;;;18.13;100.00;97813.09;5085859;27;20526;-81
2022/07/17 01:12:34;;;;;;;8.85;6.15;;;;;;;18.14;100.00;97822.94;5094809;28;20030;-81
2022/07/17 01:15:00;;;;;;;13.20;6.30;;;;;;;18.10;100.00;97819.66;5106456;27;20028;-81
2022/07/17 01:17:26;;;;;;;9.25;6.30;;;;;;;18.19;100.00;97824.25;5103739;27;20066;-81
2022/07/17 01:19:52;;;;;;;8.55;6.50;;;;;;;18.18;100.00;97813.56;5111489;28;20043;-81
2022/07/17 01:22:19;;;;;;;11.38;6.70;;;;;;;18.20;100.00;97815.13;5128807;27;20023;-81
2022/07/17 01:24:44;;;;;;;11.13;6.55;;;;;;;18.15;100.00;97813.84;5084913;28;20019;-81
2022/07/17 01:27:10;;;;;;;9.85;6.13;;;;;;;18.10;100.00;97829.63;5110538;28;20422;-80
2022/07/17 01:29:37;;;;;;;15.35;6.28;;;;;;;17.99;100.00;97817.03;5094413;28;20427;-81
2022/07/17 01:32:03;;;;;;;7.43;6.20;;;;;;;17.99;100.00;97816.16;5111951;27;20019;-81
2022/07/17 01:34:28;;;;;;;7.25;6.03;;;;;;;17.98;100.00;97817.16;5114969;27;20019;-81
2022/07/17 01:36:54;;;;;;;11.63;5.88;;;;;;;18.02;100.00;97832.16;5097356;27;20106;-80
2022/07/17 01:39:52;;;;;;;9.20;6.32;;;;;;;18.19;100.00;97826.94;5093933;28;20015;-81
2022/07/17 01:42:05;;;;;;;9.52;5.75;;;;;;;18.17;100.00;97819.97;5108984;28;20039;-81
2022/07/17 01:44:31;;;;;;;11.73;5.95;;;;;;;18.21;100.00;97816.84;5111127;28;20463;-81
2022/07/17 01:46:56;;;;;;;10.13;6.10;;;;;;;18.22;100.00;97812.28;5094024;28;20469;-80
2022/07/17 01:49:22;;;;;;;8.18;6.22;;;;;;;18.28;100.00;97823.44;5111185;28;20102;-81
2022/07/17 01:51:48;;;;;;;11.57;6.93;;;;;;;18.18;100.00;97825.22;5094040;28;20380;-81
2022/07/17 01:54:13;;;;;;;10.60;6.68;;;;;;;18.22;100.00;97826.69;5128155;27;20030;-81
2022/07/17 01:56:39;;;;;;;9.73;6.50;;;;;;;18.18;100.00;97837.94;5094000;28;20024;-81
2022/07/17 01:59:05;;;;;;;7.70;5.68;;;;;;;18.12;100.00;97817.66;5085786;27;20027;-81
2022/07/17 02:01:30;;;;;;;9.35;6.35;;;;;;;18.13;100.00;97818.50;5097160;27;20031;-81
2022/07/17 02:03:56;;;;;;;9.25;6.93;;;;;;;18.08;100.00;97823.47;5114144;27;20023;-81
2022/07/17 02:06:21;;;;;;;15.02;7.38;;;;;;;18.08;100.00;97829.75;5111418;27;20429;-81
2022/07/17 02:08:49;;;;;;;10.50;7.78;;;;;;;17.98;100.00;97836.09;5097077;27;20023;-81
2022/07/17 02:11:15;;;;;;;15.95;7.28;;;;;;;17.86;100.00;97829.91;5110534;28;20096;-81
2022/07/17 02:13:41;;;;;;;12.02;7.20;;;;;;;17.83;100.00;97833.75;5080360;28;20031;-81
2022/07/17 02:16:06;;;;;;;11.30;7.93;;;;;;;17.88;100.00;97847.72;5096994;27;20132;-81
2022/07/17 02:18:32;;;;;;;14.35;8.05;;;;;;;17.90;100.00;97839.50;5093401;28;20115;-81
2022/07/17 02:20:58;;;;;;;21.27;8.48;;;;;;;18.10;100.00;97856.69;5088414;27;20118;-81
2022/07/17 02:23:23;;;;;;;24.88;8.30;;;;;;;18.15;100.00;97857.16;5096900;27;20055;-81
2022/07/17 02:25:49;;;;;;;12.15;8.20;;;;;;;18.06;100.00;97852.53;5096885;27;20084;-81
2022/07/17 02:28:14;;;;;;;11.82;8.48;;;;;;;18.03;100.00;97858.19;5093234;28;20080;-81
2022/07/17 02:30:40;;;;;;;12.48;7.70;;;;;;;17.97;100.00;97854.19;5093459;28;20030;-81
2022/07/17 02:33:06;;;;;;;9.38;6.20;;;;;;;18.00;100.00;97839.53;5130138;27;20179;-81
2022/07/17 02:35:33;;;;;;;11.43;6.00;;;;;;;17.95;100.00;97833.66;5079494;28;20032;-81
2022/07/17 02:37:59;;;;;;;6.78;5.43;;;;;;;17.99;100.00;97848.66;5083141;28;20056;-81
2022/07/17 02:40:24;;;;;;;8.25;5.78;;;;;;;17.91;100.00;97857.44;5092902;28;20027;-81
2022/07/17 02:42:50;;;;;;;6.72;5.50;;;;;;;17.82;100.00;97852.81;5088144;28;20555;-81
2022/07/17 02:45:15;;;;;;;12.63;6.10;;;;;;;17.74;100.00;97837.25;5096527;27;20027;-81
2022/07/17 02:47:41;;;;;;;9.38;5.90;;;;;;;17.71;100.00;97847.47;5092020;28;20023;-81
2022/07/17 02:50:08;;;;;;;12.73;5.90;;;;;;;17.64;100.00;97849.84;5093222;28;20024;-81
2022/07/17 02:52:34;;;;;;;7.75;6.00;;;;;;;17.56;100.00;97859.63;5085333;27;20035;-81
2022/07/17 02:55:00;;;;;;;8.00;5.68;;;;;;;17.57;100.00;97856.75;5092925;28;20019;-81
2022/07/17 02:57:25;;;;;;;8.52;5.47;;;;;;;17.44;100.00;97866.03;5126806;27;20031;-81
2022/07/17 02:59:51;;;;;;;10.88;7.00;;;;;;;17.55;100.00;97871.41;5116562;28;20020;-81
2022/07/17 03:02:17;;;;;;;14.52;8.80;;;;;;;17.39;100.00;97869.09;5075961;28;20106;-80
2022/07/17 03:04:42;;;;;;;18.05;8.80;;;;;;;17.16;100.00;97873.75;5092251;28;20455;-80
2022/07/17 03:07:08;;;;;;;15.05;9.38;;;;;;;17.15;100.00;97880.13;5082453;28;20020;-81
2022/07/17 03:09:33;;;;;;;13.73;9.10;;;;;;;17.08;100.00;97884.31;5095548;27;20027;-81
2022/07/17 03:11:59;;;;;;;18.52;9.52;;;;;;;16.93;100.00;97884.72;5095752;28;20023;-81
2022/07/17 03:14:24;;;;;;;12.10;9.38;;;;;;;16.73;100.00;97883.69;5103360;28;20024;-81
2022/07/17 03:16:50;;;;;;;17.70;9.82;;;;;;;16.72;100.00;97893.63;5081818;28;20027;-81
2022/07/17 03:19:16;;;;;;;24.58;11.20;;;;;;;16.62;100.00;97897.19;5095374;28;20055;-80
2022/07/17 03:21:41;;;;;;;17.23;11.02;;;;;;;16.52;100.00;97891.63;5092679;28;20471;-81
2022/07/17 03:24:07;;;;;;;13.88;10.10;;;;;;;16.51;100.00;97887.22;5081978;27;20096;-81
2022/07/17 03:26:33;;;;;;;18.42;10.55;;;;;;;16.52;100.00;97890.78;5109632;28;20084;-81
2022/07/17 03:28:59;;;;;;;24.00;9.65;;;;;;;16.60;100.00;97897.31;5089247;27;20022;-81
2022/07/17 03:31:24;;;;;;;13.70;9.20;;;;;;;16.66;100.00;97914.88;5113742;28;20032;-79
2022/07/17 03:33:50;;;;;;;14.80;8.93;;;;;;;16.69;100.00;97918.19;5084409;28;20038;-81
2022/07/17 03:36:15;;;;;;;16.52;10.32;;;;;;;16.77;100.00;97920.25;5084301;28;20043;-81
2022/07/17 03:38:41;;;;;;;15.07;8.65;;;;;;;16.78;100.00;97905.75;5093417;28;20038;-81
2022/07/17 03:41:06;;;;;;;10.65;7.15;;;;;;;16.78;100.00;97901.22;5085553;27;20089;-81
2022/07/17 03:43:32;;;;;;;11.57;7.25;;;;;;;16.84;100.00;97907.97;5099947;27;20087;-81
2022/07/17 03:45:57;;;;;;;15.48;7.30;;;;;;;16.79;100.00;97900.25;5099834;27;20038;-81
2022/07/17 03:48:23;;;;;;;10.77;7.22;;;;;;;16.91;100.00;97905.63;5100144;27;20475;-81
2022/07/17 03:50:48;;;;;;;9.55;7.10;;;;;;;16.90;100.00;97895.78;5117317;27;20398;-81
2022/07/17 03:53:14;;;;;;;10.02;6.63;;;;;;;17.04;100.00;97903.66;5099858;27;20058;-81
2022/07/17 03:55:40;;;;;;;15.13;7.13;;;;;;;17.16;100.00;97903.50;5099833;27;20031;-81
2022/07/17 03:58:05;;;;;;;9.88;6.00;;;;;;;17.23;100.00;97910.09;5116593;27;20027;-81
2022/07/17 04:00:31;;;;;;;6.38;5.30;;;;;;;17.33;100.00;97905.66;5150934;27;20054;-81
2022/07/17 04:02:56;;;;;;;10.27;5.95;;;;;;;17.40;100.00;97915.94;5099556;27;20065;-81
2022/07/17 04:05:22;;;;;;;7.88;5.85;;;;;;;17.61;100.00;97909.63;5135055;27;20508;-82
2022/07/17 04:07:48;;;;;;;8.98;5.60;;;;;;;17.77;100.00;97915.47;5099635;27;20027;-82
2022/07/17 04:10:15;;;;;;;8.48;5.72;;;;;;;17.94;100.00;97915.84;5099692;27;20379;-83
2022/07/17 04:12:41;;;;;;;13.90;6.30;;;;;;;18.08;100.00;97929.94;5099422;27;20027;-81
2022/07/17 04:15:08;;;;;;;13.98;7.35;;;;;;;18.28;100.00;97914.66;5099399;27;20113;-81
2022/07/17 04:17:34;;;;;;;19.77;7.57;;;;;;;18.33;100.00;97920.56;5099322;27;20501;-81
2022/07/17 04:19:59;;;;;;;19.50;8.55;;;;;;;18.35;100.00;97929.38;5116183;27;20027;-81
2022/07/17 04:22:25;;;;;;;23.73;9.23;;;;;;;18.37;100.00;97930.09;5116341;27;20031;-83
2022/07/17 04:24:51;;;;;;;17.92;9.30;;;;;;;18.45;100.00;97935.72;5116427;27;20027;-81
2022/07/17 04:27:17;;;;;;;14.15;8.57;;;;;;;18.50;100.00;97938.91;5116214;27;20019;-81
2022/07/17 04:29:43;;;;;;;13.80;8.15;;;;;;;18.62;100.00;97940.53;5099181;27;20030;-81
2022/07/17 04:32:08;;;;;;;16.17;8.70;;;;;;;18.72;100.00;97940.59;5108966;28;20034;-82
2022/07/17 04:34:34;;;;;;;18.35;9.98;;;;;;;18.68;100.00;97949.97;5133623;27;20042;-82
2022/07/17 04:37:01;;;;;;;16.63;9.88;;;;;;;18.83;100.00;97954.91;5133563;27;20034;-81
2022/07/17 04:39:27;;;;;;;13.85;8.77;;;;;;;18.90;100.00;97958.78;5098253;27;20551;-82
2022/07/17 04:41:52;;;;;;;14.73;9.18;;;;;;;18.93;100.00;97952.25;5090675;28;20047;-82
2022/07/17 04:44:18;;;;;;;12.82;8.63;;;;;;;19.11;100.00;97957.84;5095515;28;20020;-81
2022/07/17 04:46:44;;;;;;;11.38;8.52;;;;;;;19.32;100.00;97956.78;5112236;28;20540;-81
2022/07/17 04:49:09;;;;;;;14.63;8.73;;;;;;;19.52;100.00;97956.84;5078426;28;20030;-81
2022/07/17 04:51:35;;;;;;;16.45;9.13;;;;;;;19.51;100.00;97958.72;5078413;28;20038;-81
2022/07/17 04:54:01;;;;;;;26.13;12.43;;;;;;;19.52;100.00;97954.16;5078181;28;20096;-81
2022/07/17 04:56:26;;;;;;;16.75;9.98;;;;;;;19.64;100.00;97962.03;5095618;28;20380;-82
2022/07/17 04:58:52;;;;;;;16.75;9.73;;;;;;;19.65;100.00;97963.75;5078555;28;20507;-82
2022/07/17 05:01:18;;;;;;;22.08;10.18;;;;;;;19.84;100.00;97958.31;5095731;28;20030;-82
2022/07/17 05:03:43;;;;;;;17.63;9.02;;;;;;;20.07;100.00;97969.75;5095887;28;20020;-82
2022/07/17 05:06:09;;;;;;;14.85;9.07;;;;;;;21.12;97.41;97973.28;5095237;28;20095;-81
2022/07/17 05:08:35;;;;;;;15.98;8.63;;;;;;;23.54;83.40;97959.00;5095090;28;20042;-81
2022/07/17 05:11:01;;;;;;;15.65;8.35;;;;;;;25.44;70.14;97960.34;5078361;28;20153;-82
2022/07/17 05:13:26;;;;;;;16.02;9.10;;;;;;;25.51;67.45;97964.09;5112020;28;20035;-79
2022/07/17 05:15:52;;;;;;;13.63;9.50;;;;;;;25.61;66.87;97964.75;5078465;28;20455;-79
2022/07/17 05:18:17;;;;;;;15.40;8.77;;;;;;;26.05;64.88;97954.91;5095055;28;20051;-79
2022/07/17 05:20:43;;;;;;;17.80;10.25;;;;;;;26.01;64.13;97970.00;5095128;28;20019;-80
2022/07/17 05:23:08;;;;;;;16.02;10.05;;;;;;;25.30;66.26;97962.78;5077599;28;20039;-78
2022/07/17 05:25:34;;;;;;;17.48;11.32;;;;;;;24.99;67.57;97974.69;5078991;28;20392;-80
2022/07/17 05:28:01;;;;;;;18.92;11.25;;;;;;;25.68;65.34;97968.47;5095463;28;20019;-81
2022/07/17 05:30:27;;;;;;;18.30;11.25;;;;;;;27.08;60.31;97956.06;5095071;28;20510;-81
2022/07/17 05:32:52;;;;;;;20.85;10.90;;;;;;;28.72;56.18;97946.22;5078022;28;20043;-81
2022/07/17 05:35:18;;;;;;;19.83;9.95;;;;;;;29.75;52.18;97946.25;5077447;28;20067;-81
2022/07/17 05:37:43;;;;;;;18.55;10.23;;;;;;;30.29;49.97;97951.75;5111365;28;20023;-82
2022/07/17 05:40:09;;;;;;;24.73;13.05;;;;;;;30.15;49.34;97948.09;5094617;28;20027;-81
2022/07/17 05:42:37;;;;;;;22.27;12.80;;;;;;;30.82;47.86;97942.50;5090363;27;20046;-81
2022/07/17 05:45:04;;;;;;;15.15;8.52;;;;;;;31.37;46.17;97962.44;5098339;27;20030;-82
2022/07/17 05:47:30;;;;;;;16.08;8.65;;;;;;;32.07;44.66;97953.28;5097495;27;20126;-82
2022/07/17 05:49:55;;;;;;;27.83;9.43;;;;;;;32.45;43.95;97956.03;5097585;27;20037;-82
2022/07/17 05:52:21;;;;;;;12.68;7.53;;;;;;;32.66;43.50;97962.09;5114543;27;20023;-82
2022/07/17 05:54:47;;;;;;;10.15;7.22;;;;;;;32.98;41.90;97957.34;5097894;27;20393;-82
2022/07/17 05:57:12;;;;;;;16.17;7.55;;;;;;;33.82;40.60;97948.38;5097363;27;20035;-82
2022/07/17 05:59:38;;;;;;;12.20;6.57;;;;;;;35.07;37.99;97935.44;5097553;27;20023;-82
2022/07/17 06:02:04;;;;;;;11.45;7.30;;;;;;;35.97;37.05;97935.84;5097718;27;20033;-83
2022/07/17 06:04:30;;;;;;;13.63;7.63;;;;;;;36.64;35.30;97937.78;5097181;27;20095;-82
2022/07/17 06:06:55;;;;;;;9.07;6.60;;;;;;;36.93;34.53;97931.06;5097203;27;20027;-82
2022/07/17 06:09:21;;;;;;;12.05;6.57;;;;;;;36.36;34.86;97927.47;5092469;28;20043;-79
2022/07/17 06:11:46;;;;;;;11.98;6.60;;;;;;;36.23;34.65;97935.31;5112450;27;20026;-82
2022/07/17 06:14:12;;;;;;;21.30;16.13;;;;;;;35.86;35.67;97929.25;5097600;27;20110;-82
2022/07/17 06:16:38;;;;;;;11.07;7.70;;;;;;;34.33;37.32;97945.19;5111785;27;20027;-81
2022/07/17 06:19:03;;;;;;;9.98;7.63;;;;;;;34.11;37.43;97950.41;5110632;27;20521;-81
2022/07/17 06:21:29;;;;;;;11.63;7.50;;;;;;;34.18;37.80;97941.94;5116255;27;20027;-81
2022/07/17 06:23:54;;;;;;;12.32;6.72;;;;;;;34.95;36.77;97932.63;5098036;27;20018;-85
2022/07/17 06:26:20;;;;;;;16.40;9.13;;;;;;;36.25;34.77;97936.75;5122348;27;20023;-82
2022/07/17 06:28:45;;;;;;;14.32;7.63;;;;;;;37.37;32.69;97920.06;5112509;27;20483;-84
2022/07/17 06:31:11;;;;;;;12.18;7.50;;;;;;;37.63;32.46;97936.09;5126727;27;20034;-83
2022/07/17 06:33:37;;;;;;;9.63;6.85;;;;;;;38.83;31.37;97943.44;5114414;27;20023;-86
2022/07/17 06:36:03;;;;;;;8.75;5.95;;;;;;;38.39;31.42;97923.13;5096774;27;20474;-82
2022/07/17 06:38:28;;;;;;;10.90;6.18;;;;;;;39.04;30.20;97926.56;5095422;27;21001;-82
2022/07/17 06:40:54;;;;;;;14.05;6.00;;;;;;;39.18;29.11;97920.50;5093944;27;20030;-83
2022/07/17 06:43:20;;;;;;;8.40;6.20;;;;;;;38.43;30.12;97915.88;5097341;27;20130;-83
2022/07/17 06:45:45;;;;;;;7.18;4.45;;;;;;;39.20;28.33;97912.66;5131280;27;20422;-84
2022/07/17 06:48:11;;;;;;;16.48;5.53;;;;;;;38.86;28.57;97915.78;5096221;27;20377;-84
2022/07/17 06:50:37;;;;;;;10.10;5.05;;;;;;;39.88;27.76;97901.38;5096810;27;20517;-83
2022/07/17 06:53:02;;;;;;;4.80;4.13;;;;;;;38.47;27.66;97895.53;5113476;27;20033;-83
2022/07/17 06:55:28;;;;;;;205.18;19.48;;;;;;;39.21;27.89;97914.38;5097053;27;20410;-82
2022/07/17 06:57:53;;;;;;;5.63;3.80;;;;;;;39.45;26.35;97902.50;5096506;27;20053;-83
2022/07/17 07:00:19;;;;;;;20.25;4.40;;;;;;;39.48;26.90;97910.38;5113522;28;20027;-83
2022/07/17 07:02:45;;;;;;;6.70;3.22;;;;;;;39.85;25.43;97887.03;5113109;27;20459;-83
2022/07/17 07:05:10;;;;;;;4.70;3.25;;;;;;;40.73;24.56;97891.53;5095788;28;20432;-83
2022/07/17 07:07:36;;;;;;;15.43;4.00;;;;;;;41.10;24.86;97894.91;5096735;28;20027;-84
2022/07/17 07:10:02;;;;;;;7.45;3.65;;;;;;;40.27;25.47;97889.75;5096548;28;20055;-83
2022/07/17 07:12:29;;;;;;;7.82;3.70;;;;;;;39.66;26.08;97908.22;5096832;28;20123;-83
2022/07/17 07:14:54;;;;;;;5.50;3.83;;;;;;;40.46;25.84;97899.31;5096850;28;20031;-83
2022/07/17 07:17:20;;;;;;;9.00;5.03;;;;;;;39.98;25.59;97897.75;5096195;28;20512;-83
2022/07/17 07:19:46;;;;;;;10.32;4.88;;;;;;;39.80;25.62;97890.69;5114046;28;20419;-84
2022/07/17 07:22:11;;;;;;;3.97;3.58;;;;;;;41.13;24.41;97889.88;5096442;27;20039;-83
2022/07/17 07:24:37;;;;;;;8.40;4.00;;;;;;;39.47;25.81;97896.66;5096640;28;20023;-84
2022/07/17 07:27:03;;;;;;;4.85;3.42;;;;;;;39.24;26.70;97902.66;5096243;28;20026;-83
2022/07/17 07:29:28;;;;;;;6.75;3.70;;;;;;;41.07;24.75;97878.63;5114326;28;20023;-83
2022/07/17 07:31:54;;;;;;;7.43;3.35;;;;;;;41.51;24.06;97903.31;5096946;28;20115;-83
2022/07/17 07:34:20;;;;;;;7.75;3.75;;;;;;;41.73;23.93;97903.81;5096527;28;20023;-83
2022/07/17 07:36:45;;;;;;;3.83;3.30;;;;;;;39.88;25.43;97892.94;5096473;28;20025;-83
2022/07/17 07:39:11;;;;;;;7.53;3.67;;;;;;;40.69;25.13;97898.81;5113062;28;20015;-82
2022/07/17 07:41:36;;;;;;;5.72;3.13;;;;;;;40.99;24.87;97903.63;5096461;28;20047;-84
2022/07/17 07:44:02;;;;;;;11.25;5.40;;;;;;;40.84;24.97;97896.03;5096340;28;20027;-84
2022/07/17 07:46:31;;;;;;;8.75;5.35;;;;;;;39.89;26.34;97905.88;5096393;28;20114;-83
2022/07/17 07:48:56;;;;;;;4.35;3.38;;;;;;;37.72;27.86;97900.16;5096184;28;20022;-83
2022/07/17 07:51:24;;;;;;;7.90;3.63;;;;;;;38.96;26.15;97913.06;5131337;28;20019;-83
2022/07/17 07:53:49;;;;;;;6.13;3.63;;;;;;;38.05;27.88;97911.25;5096718;28;20029;-85
2022/07/17 07:56:15;;;;;;;6.32;3.92;;;;;;;39.92;26.04;97910.06;5096115;28;20117;-83
2022/07/17 07:58:44;;;;;;;7.97;3.65;;;;;;;39.76;26.18;97903.56;5096554;28;20059;-84
2022/07/17 08:01:09;;;;;;;4.22;3.33;;;;;;;39.00;26.35;97907.78;5113809;28;20023;-83
2022/07/17 08:03:36;;;;;;;6.85;3.53;;;;;;;38.94;26.72;97909.69;5113307;27;20034;-84
2022/07/17 08:06:01;;;;;;;6.05;3.25;;;;;;;39.54;25.74;97903.69;5113525;28;20106;-83
2022/07/17 08:08:27;;;;;;;5.88;4.35;;;;;;;40.11;25.26;97908.50;5096099;28;20110;-82
2022/07/17 08:10:52;;;;;;;19.48;16.10;;;;;;;40.44;24.55;97901.56;5096103;28;20030;-83
2022/07/17 08:13:18;;;;;;;5.60;3.30;;;;;;;41.36;23.31;97901.38;5130301;27;20398;-83
2022/07/17 08:15:44;;;;;;;12.98;8.95;;;;;;;41.28;23.39;97901.94;5098663;27;20030;-83
2022/07/17 08:18:10;;;;;;;5.57;3.83;;;;;;;40.24;24.13;97895.91;5099597;27;20031;-84
2022/07/17 08:20:36;;;;;;;6.10;3.55;;;;;;;41.26;23.71;97892.91;5099623;27;20102;-83
2022/07/17 08:23:01;;;;;;;7.80;3.72;;;;;;;42.01;22.10;97893.88;5099508;27;20478;-83
2022/07/17 08:25:27;;;;;;;6.53;3.28;;;;;;;41.35;22.66;97890.44;5116501;27;20367;-82
2022/07/17 08:27:53;;;;;;;3.38;3.08;;;;;;;40.24;23.77;97885.53;5099507;27;20094;-83
2022/07/17 08:30:18;;;;;;;6.65;3.53;;;;;;;40.58;24.21;97899.91;5099896;27;20034;-83
2022/07/17 08:32:44;;;;;;;5.35;4.40;;;;;;;40.89;23.59;97887.59;5100118;27;20023;-84
2022/07/17 08:35:10;;;;;;;4.50;2.78;;;;;;;42.09;21.91;97890.44;5117099;27;20023;-83
2022/07/17 08:37:51;;;;;;;7.18;2.67;;;;;;;42.44;20.70;97886.63;5099675;27;20478;-83
2022/07/17 08:40:27;;;;;;;7.30;2.65;;;;;;;41.55;21.02;97873.50;5099149;27;20035;-83
2022/07/17 08:42:55;;;;;;;7.00;3.00;;;;;;;42.52;20.94;97884.03;5099862;27;20426;-84
2022/07/17 08:45:20;;;;;;;12.57;3.30;;;;;;;40.89;22.81;97876.34;5099481;27;20034;-83
2022/07/17 08:47:46;;;;;;;8.73;3.45;;;;;;;40.29;23.80;97870.69;5099848;27;20114;-83
2022/07/17 08:50:12;;;;;;;14.07;3.30;;;;;;;39.43;23.84;97884.31;5116843;27;20047;-84
2022/07/17 08:52:39;;;;;;;7.90;4.68;;;;;;;40.28;23.17;97874.59;5099221;27;20489;-83
2022/07/17 08:55:14;;;;;;;9.77;6.25;;;;;;;40.89;22.86;97881.97;5116510;27;20490;-82
2022/07/17 08:57:41;;;;;;;8.05;4.07;;;;;;;41.11;22.48;97879.75;5099409;27;20023;-82
2022/07/17 09:00:10;;;;;;;8.18;6.88;;;;;;;40.56;22.96;97879.72;5099455;27;20026;-82
2022/07/17 09:02:36;;;;;;;7.60;3.00;;;;;;;39.21;22.88;97870.41;5116541;27;20034;-84
2022/07/17 09:05:02;;;;;;;7.85;4.20;;;;;;;40.61;22.31;97874.09;5098652;27;20049;-84
2022/07/17 09:07:28;;;;;;;5.75;4.07;;;;;;;41.37;21.27;97866.53;5099105;27;20486;-84
2022/07/17 09:09:53;;;;;;;11.43;4.57;;;;;;;41.44;20.99;97863.44;5098193;27;20019;-82
2022/07/17 09:12:45;;;;;;;6.82;3.83;;;;;;;40.84;20.53;97867.09;5098778;27;20062;-83
2022/07/17 09:15:18;;;;;;;9.52;3.83;;;;;;;41.12;21.07;97858.13;5114357;27;20414;-83
2022/07/17 09:17:49;;;;;;;6.13;3.40;;;;;;;40.84;21.06;97853.06;5115677;27;20502;-83
2022/07/17 09:20:14;;;;;;;9.23;3.17;;;;;;;41.61;20.55;97856.34;5098553;27;20050;-83
2022/07/17 09:22:42;;;;;;;9.02;3.13;;;;;;;42.54;20.08;97852.78;5098715;27;20436;-84
2022/07/17 09:25:08;;;;;;;4.97;3.28;;;;;;;41.73;20.44;97864.44;5115748;27;20061;-84
2022/07/17 09:27:34;;;;;;;9.35;3.65;;;;;;;40.74;21.03;97856.72;5097740;27;20067;-83
2022/07/17 09:30:00;;;;;;;7.78;4.20;;;;;;;40.74;21.61;97853.91;5115265;27;20026;-83
2022/07/17 09:32:30;;;;;;;9.65;5.53;;;;;;;41.22;21.32;97862.88;5098166;27;20031;-84
2022/07/17 09:34:57;;;;;;;4.35;2.80;;;;;;;42.74;20.16;97861.09;5095750;27;20027;-84
2022/07/17 09:37:24;;;;;;;4.18;2.75;;;;;;;42.84;20.45;97858.19;5097881;27;20439;-84
2022/07/17 09:39:51;;;;;;;5.32;2.67;;;;;;;41.83;21.35;97857.97;5097903;27;20056;-84
2022/07/17 09:42:27;;;;;;;5.22;3.22;;;;;;;41.82;20.74;97862.75;5098530;27;20475;-84
2022/07/17 09:45:02;;;;;;;3.88;3.10;;;;;;;41.90;21.27;97864.13;5098271;27;20134;-84
2022/07/17 09:47:28;;;;;;;4.75;3.00;;;;;;;40.29;22.31;97854.69;5114754;27;20023;-84
2022/07/17 09:49:55;;;;;;;4.50;3.00;;;;;;;39.74;22.90;97855.34;5098189;27;20027;-84
2022/07/17 09:52:26;;;;;;;8.40;3.63;;;;;;;39.39;23.09;97871.94;5098636;27;20123;-84
2022/07/17 09:54:53;;;;;;;32.70;19.00;;;;;;;39.54;22.75;97866.41;5115107;27;20027;-83
2022/07/17 09:57:21;;;;;;;4.72;3.70;;;;;;;40.37;22.43;97854.13;5098137;27;20490;-84
2022/07/17 09:59:47;;;;;;;14.18;3.83;;;;;;;41.50;21.71;97859.47;5097602;27;20055;-83
2022/07/17 10:02:13;;;;;;;6.63;2.65;;;;;;;40.99;22.21;97856.75;5097356;27;20038;-83
2022/07/17 10:04:40;;;;;;;3.38;2.88;;;;;;;40.76;22.79;97865.72;5097869;27;20031;-84
2022/07/17 10:07:08;;;;;;;4.85;2.95;;;;;;;39.98;23.35;97859.34;5097877;27;20558;-83
2022/07/17 10:09:35;;;;;;;5.70;2.63;;;;;;;39.60;23.98;97848.50;5115019;27;20023;-83
2022/07/17 10:12:00;;;;;;;4.30;3.17;;;;;;;40.50;22.97;97849.94;5097661;27;20019;-83
2022/07/17 10:14:26;;;;;;;4.30;3.30;;;;;;;40.72;23.15;97856.16;5097484;27;20501;-83
2022/07/17 10:16:52;;;;;;;5.72;3.55;;;;;;;40.97;22.58;97859.00;5098043;27;20513;-83
2022/07/17 10:19:22;;;;;;;5.63;3.45;;;;;;;41.38;22.03;97861.78;5114344;27;20027;-82
2022/07/17 10:22:14;;;;;;;9.40;4.23;;;;;;;41.41;21.98;97856.41;5097664;27;20512;-84
2022/07/17 10:24:52;;;;;;;3.97;3.30;;;;;;;41.81;21.79;97854.63;5127991;27;20039;-83
2022/07/17 10:27:24;;;;;;;7.32;2.80;;;;;;;41.13;21.81;97846.59;5097485;27;20023;-82
2022/07/17 10:30:00;;;;;;;6.45;3.45;;;;;;;41.73;21.84;97858.81;5091034;27;20026;-82
2022/07/17 10:32:25;;;;;;;7.03;2.90;;;;;;;40.80;22.97;97852.78;5097076;27;20110;-83
2022/07/17 10:35:00;;;;;;;5.75;2.85;;;;;;;43.25;20.72;97852.22;5114752;27;20058;-83
2022/07/17 10:37:34;;;;;;;3.90;2.70;;;;;;;42.19;21.44;97845.44;5096723;27;20023;-82
2022/07/17 10:40:12;;;;;;;3.20;2.90;;;;;;;41.43;22.16;97840.09;5113373;27;20031;-82
2022/07/17 10:43:00;;;;;;;12.52;3.88;;;;;;;38.80;24.60;97824.50;5132253;27;20055;-81
2022/07/17 10:45:39;;;;;;;7.68;3.15;;;;;;;40.14;23.22;97826.63;5096872;27;20038;-82
2022/07/17 10:48:09;;;;;;;3.35;2.58;;;;;;;41.89;21.88;97823.06;5114346;27;20027;-83
2022/07/17 10:50:35;;;;;;;11.70;3.00;;;;;;;41.18;21.57;97826.09;5097033;27;20109;-83
2022/07/17 10:53:12;;;;;;;4.80;2.55;;;;;;;41.56;21.73;97822.63;5113727;27;20123;-83
2022/07/17 10:55:40;;;;;;;4.85;2.55;;;;;;;38.80;23.87;97818.88;5096845;27;20114;-81
2022/07/17 10:58:19;;;;;;;3.17;2.85;;;;;;;40.84;22.65;97819.38;5097017;27;20451;-83
2022/07/17 11:01:07;;;;;;;5.85;3.30;;;;;;;40.43;22.78;97810.94;5131896;27;20113;-82
2022/07/17 11:03:46;;;;;;;3.60;2.80;;;;;;;40.53;22.57;97819.41;5096871;28;20058;-82
2022/07/17 11:06:16;;;;;;;4.10;2.75;;;;;;;40.21;23.71;97820.75;5113316;28;20448;-81
2022/07/17 11:08:53;;;;;;;4.57;3.08;;;;;;;41.36;22.20;97814.28;5113697;28;20027;-82
2022/07/17 11:11:34;;;;;;;3.83;3.03;;;;;;;40.95;22.54;97809.84;5096604;28;20027;-83
2022/07/17 11:14:12;;;;;;;8.77;2.72;;;;;;;41.06;22.55;97803.94;5113401;28;20023;-83
2022/07/17 11:16:38;;;;;;;11.23;2.75;;;;;;;39.34;23.71;97799.09;5131863;28;20100;-83
2022/07/17 11:19:03;;;;;;;3.95;2.80;;;;;;;38.48;25.58;97804.91;5114024;28;20023;-85
2022/07/17 11:21:29;;;;;;;4.45;3.40;;;;;;;38.18;25.34;97812.16;5097302;28;20027;-86
2022/07/17 11:23:57;;;;;;;6.53;2.67;;;;;;;39.25;24.52;97806.34;5099854;28;20057;-86